createdAt,value
2023-04-15T00:01:33.965Z,73.41
2023-04-15T00:06:38.416Z,73.77
2023-04-15T00:11:42.227Z,73.97
2023-04-15T00:16:47.029Z,74.63
2023-04-15T00:21:50.572Z,73.47
2023-04-15T00:26:53.989Z,74.58
2023-04-15T00:31:59.075Z,74.77
2023-04-15T00:37:02.550Z,73.92
2023-04-15T00:42:06.594Z,73.07
2023-04-15T00:47:12.984Z,72.00
2023-04-15T00:52:16.931Z,72.22
2023-04-15T00:57:21.757Z,72.29
2023-04-15T01:02:27.463Z,72.68
2023-04-15T01:07:31.077Z,73.71
2023-04-15T01:12:35.327Z,73.50
2023-04-15T01:17:40.915Z,73.31
2023-04-15T01:22:45.369Z,73.94
2023-04-15T01:27:51.134Z,74.27
2023-04-15T01:32:55.190Z,74.15
2023-04-15T01:38:17.315Z,74.27
2023-04-15T01:43:23.239Z,73.55
2023-04-15T01:48:27.426Z,73.27
2023-04-15T01:53:30.806Z,71.40
2023-04-15T01:58:35.923Z,70.40
2023-04-15T02:03:40.007Z,69.59
2023-04-15T02:08:43.756Z,69.46
2023-04-15T02:13:49.212Z,68.82
2023-04-15T02:18:52.724Z,69.00
2023-04-15T02:23:56.369Z,69.09
2023-04-15T02:29:01.723Z,69.42
2023-04-15T02:34:05.576Z,69.99
2023-04-15T02:39:08.989Z,70.37
2023-04-15T02:44:13.773Z,70.37
2023-04-15T02:49:17.463Z,70.99
2023-04-15T02:54:23.795Z,71.00
2023-04-15T02:59:28.871Z,71.07
2023-04-15T03:04:32.595Z,71.32
2023-04-15T03:09:36.348Z,71.34
2023-04-15T03:14:42.233Z,71.41
2023-04-15T03:19:46.119Z,72.13
2023-04-15T03:24:49.999Z,72.08
2023-04-15T03:29:55.254Z,72.99
2023-04-15T03:35:00.916Z,72.96
2023-04-15T03:40:04.513Z,73.57
2023-04-15T03:45:10.551Z,74.67
2023-04-15T03:50:13.895Z,74.91
2023-04-15T03:55:17.514Z,75.24
2023-04-15T04:00:22.734Z,75.57
2023-04-15T04:05:26.126Z,76.17
2023-04-15T04:10:29.595Z,76.85
2023-04-15T04:15:35.062Z,76.68
2023-04-15T04:20:38.798Z,76.66
2023-04-15T04:25:42.740Z,76.18
2023-04-15T04:30:47.545Z,75.63
2023-04-15T04:35:51.290Z,76.30
2023-04-15T04:40:54.761Z,76.77
2023-04-15T04:45:59.554Z,76.72
2023-04-15T04:51:03.357Z,77.49
2023-04-15T04:56:07.042Z,78.15
2023-04-15T05:01:13.175Z,78.51
2023-04-15T05:06:16.621Z,78.20
2023-04-15T05:11:20.087Z,78.02
2023-04-15T05:16:25.968Z,77.26
2023-04-15T05:21:29.333Z,76.89
2023-04-15T05:26:32.887Z,75.19
2023-04-15T05:31:38.621Z,75.38
2023-04-15T05:36:42.348Z,74.51
2023-04-15T05:41:45.826Z,73.99
2023-04-15T05:46:51.014Z,74.49
2023-04-15T05:51:54.406Z,75.11
2023-04-15T05:56:58.486Z,74.72
2023-04-15T06:02:03.320Z,75.18
2023-04-15T06:07:07.003Z,76.04
2023-04-15T06:12:12.514Z,77.06
2023-04-15T06:17:18.616Z,79.27
2023-04-15T06:22:22.367Z,81.79
2023-04-15T06:27:26.046Z,83.90
2023-04-15T06:32:31.295Z,85.56
2023-04-15T06:37:35.014Z,86.98
2023-04-15T06:42:38.738Z,88.50
2023-04-15T06:47:43.761Z,88.53
2023-04-15T06:52:47.572Z,89.84
2023-04-15T06:57:51.020Z,90.14
2023-04-15T07:02:56.622Z,90.40
2023-04-15T07:08:00.504Z,90.26
2023-04-15T07:13:03.917Z,89.22
2023-04-15T07:18:09.780Z,89.23
2023-04-15T07:23:13.138Z,88.97
2023-04-15T07:28:16.625Z,88.79
2023-04-15T07:33:21.705Z,87.52
2023-04-15T07:38:25.203Z,88.05
2023-04-15T07:43:29.181Z,87.90
2023-04-15T07:48:35.492Z,86.58
2023-04-15T07:53:40.014Z,84.54
2023-04-15T07:58:43.924Z,80.75
2023-04-15T08:03:48.909Z,79.18
2023-04-15T08:08:52.930Z,77.93
2023-04-15T08:13:56.440Z,78.47
2023-04-15T08:19:01.630Z,78.12
2023-04-15T08:24:05.388Z,78.82
2023-04-15T08:29:09.267Z,78.40
2023-04-15T08:34:14.161Z,78.14
2023-04-15T08:39:17.569Z,78.00
2023-04-15T08:44:22.908Z,79.30
2023-04-15T08:49:29.223Z,75.51
2023-04-15T08:54:33.108Z,74.81
2023-04-15T08:59:37.140Z,74.06
2023-04-15T09:04:42.379Z,73.15
2023-04-15T09:09:46.246Z,70.79
2023-04-15T09:14:50.184Z,70.18
2023-04-15T09:20:09.801Z,71.49
2023-04-15T09:25:34.304Z,70.29
2023-04-15T09:30:39.090Z,70.10
2023-04-15T09:35:50.306Z,66.52
2023-04-15T09:40:53.757Z,65.65
2023-04-15T09:45:59.343Z,63.59
2023-04-15T09:51:04.496Z,62.91
2023-04-15T09:56:09.184Z,62.82
2023-04-15T10:01:12.679Z,63.98
2023-04-15T10:06:18.281Z,64.03
2023-04-15T10:11:24.291Z,64.15
2023-04-15T10:16:30.228Z,61.49
2023-04-15T10:21:35.849Z,62.87
2023-04-15T10:26:39.637Z,62.34
2023-04-15T10:31:43.820Z,64.01
2023-04-15T10:36:48.626Z,63.07
2023-04-15T10:42:08.638Z,61.52
2023-04-15T10:47:14.093Z,57.51
2023-04-15T10:52:26.244Z,59.12
2023-04-15T10:57:36.868Z,55.20
2023-04-15T11:02:45.230Z,57.49
2023-04-15T11:07:52.859Z,53.47
2023-04-15T11:12:59.500Z,55.42
2023-04-15T11:18:11.044Z,56.79
2023-04-15T11:23:17.091Z,52.06
2023-04-15T11:28:20.406Z,52.17
2023-04-15T11:33:25.053Z,53.05
2023-04-15T11:38:29.948Z,51.96
2023-04-15T11:43:35.507Z,50.43
2023-04-15T11:48:45.058Z,48.79
2023-04-15T11:53:52.119Z,51.55
2023-04-15T11:59:00.260Z,47.66
2023-04-15T12:04:13.075Z,47.47
2023-04-15T12:09:20.314Z,48.14
2023-04-15T12:14:26.704Z,48.73
2023-04-15T12:19:32.578Z,46.90
2023-04-15T12:24:38.859Z,47.11
2023-04-15T12:29:44.269Z,47.40
2023-04-15T12:34:52.154Z,47.33
2023-04-15T12:39:57.046Z,48.08
2023-04-15T12:45:00.852Z,49.13
2023-04-15T12:50:04.556Z,48.20
2023-04-15T12:55:10.261Z,47.95
2023-04-15T13:00:15.140Z,47.64
2023-04-15T13:05:19.004Z,47.07
2023-04-15T13:10:23.837Z,48.43
2023-04-15T13:15:27.748Z,50.66
2023-04-15T13:20:31.360Z,47.24
2023-04-15T13:25:36.647Z,48.52
2023-04-15T13:30:40.809Z,48.13
2023-04-15T13:35:44.481Z,46.98
2023-04-15T13:40:49.393Z,46.54
2023-04-15T13:45:52.960Z,46.58
2023-04-15T13:50:56.385Z,47.22
2023-04-15T13:56:01.144Z,45.66
2023-04-15T14:01:06.117Z,47.10
2023-04-15T14:06:10.617Z,46.28
2023-04-15T14:11:15.680Z,46.12
2023-04-15T14:16:19.184Z,45.60
2023-04-15T14:21:22.712Z,46.46
2023-04-15T14:26:27.677Z,47.41
2023-04-15T14:31:31.114Z,48.19
2023-04-15T14:36:35.077Z,47.06
2023-04-15T14:41:40.272Z,48.18
2023-04-15T14:46:43.732Z,49.17
2023-04-15T14:51:47.756Z,49.48
2023-04-15T14:56:52.587Z,49.44
2023-04-15T15:01:56.354Z,48.17
2023-04-15T15:07:00.028Z,48.68
2023-04-15T15:12:05.241Z,49.13
2023-04-15T15:17:08.736Z,51.24
2023-04-15T15:22:12.567Z,52.33
2023-04-15T15:27:17.431Z,54.40
2023-04-15T15:32:20.941Z,55.60
2023-04-15T15:37:24.896Z,55.09
2023-04-15T15:42:33.176Z,55.55
2023-04-15T15:47:36.835Z,56.43
2023-04-15T15:52:40.569Z,58.28
2023-04-15T15:57:45.781Z,58.85
2023-04-15T16:03:05.877Z,60.30
2023-04-15T16:08:10.687Z,61.40
2023-04-15T16:13:15.926Z,61.29
2023-04-15T16:18:19.802Z,62.68
2023-04-15T16:23:24.039Z,63.04
2023-04-15T16:28:29.334Z,64.11
2023-04-15T16:33:33.410Z,65.28
2023-04-15T16:38:37.214Z,66.03
2023-04-15T16:43:42.178Z,67.51
2023-04-15T16:48:46.195Z,68.14
2023-04-15T16:53:50.445Z,69.09
2023-04-15T16:58:55.626Z,69.98
2023-04-15T17:03:59.429Z,71.43
2023-04-15T17:09:03.034Z,72.10
2023-04-15T17:14:08.062Z,72.81
2023-04-15T17:19:12.745Z,73.26
2023-04-15T17:24:22.084Z,74.38
2023-04-15T17:29:32.426Z,75.31
2023-04-15T17:34:50.737Z,75.47
2023-04-15T17:40:15.000Z,75.25
2023-04-15T17:45:39.887Z,75.37
2023-04-15T17:51:04.912Z,76.25
2023-04-15T17:56:29.472Z,76.45
2023-04-15T18:01:54.330Z,76.64
2023-04-15T18:07:17.753Z,77.41
2023-04-15T18:12:41.313Z,77.68
2023-04-15T18:18:06.068Z,77.54
2023-04-15T18:23:09.723Z,77.87
2023-04-15T18:28:13.738Z,78.19
2023-04-15T18:33:18.938Z,78.54
2023-04-15T18:38:22.384Z,78.32
2023-04-15T18:43:25.960Z,78.16
2023-04-15T18:48:30.966Z,78.21
2023-04-15T18:53:34.417Z,78.37
2023-04-15T18:59:08.788Z,78.24
2023-04-15T19:04:03.383Z,78.13
2023-04-15T19:09:07.420Z,79.27
2023-04-15T19:14:11.418Z,78.89
2023-04-15T19:19:16.451Z,78.23
2023-04-15T19:24:20.370Z,78.39
2023-04-15T19:29:24.348Z,78.31
2023-04-15T19:34:29.160Z,78.53
2023-04-15T19:39:32.927Z,78.93
2023-04-15T19:44:37.358Z,78.86
2023-04-15T19:49:44.139Z,78.71
2023-04-15T19:54:48.009Z,78.78
2023-04-15T19:59:51.717Z,79.03
2023-04-15T20:04:56.581Z,78.54
2023-04-15T20:09:59.970Z,78.99
2023-04-15T20:15:03.359Z,79.51
2023-04-15T20:20:09.866Z,79.28
2023-04-15T20:25:13.354Z,79.47
2023-04-15T20:30:16.922Z,79.57
2023-04-15T20:35:21.910Z,80.05
2023-04-15T20:40:25.958Z,80.13
2023-04-15T20:45:29.551Z,79.92
2023-04-15T20:50:34.437Z,80.24
2023-04-15T20:55:37.879Z,80.89
2023-04-15T21:00:41.659Z,80.21
2023-04-15T21:05:46.770Z,80.22
2023-04-15T21:10:50.282Z,79.60
2023-04-15T21:15:54.585Z,80.11
2023-04-15T21:21:00.467Z,80.84
2023-04-15T21:26:04.182Z,80.54
2023-04-15T21:31:08.351Z,79.53
2023-04-15T21:36:14.837Z,79.33
2023-04-15T21:41:18.290Z,79.27
2023-04-15T21:46:25.394Z,79.60
2023-04-15T21:51:32.851Z,80.00
2023-04-15T21:56:37.925Z,79.93
2023-04-15T22:01:41.744Z,79.94
2023-04-15T22:06:47.013Z,79.57
2023-04-15T22:11:50.652Z,79.35
2023-04-15T22:16:54.661Z,79.04
2023-04-15T22:22:00.054Z,78.98
2023-04-15T22:27:03.644Z,79.73
2023-04-15T22:32:08.558Z,80.92
2023-04-15T22:37:13.731Z,81.16
2023-04-15T22:42:17.239Z,81.18
2023-04-15T22:47:21.333Z,81.80
2023-04-15T22:52:30.647Z,82.29
2023-04-15T22:57:35.074Z,82.16
2023-04-15T23:02:38.723Z,82.95
2023-04-15T23:07:43.960Z,83.43
2023-04-15T23:12:48.371Z,83.48
2023-04-15T23:17:52.246Z,83.72
2023-04-15T23:22:57.106Z,84.15
2023-04-15T23:28:00.973Z,84.53
2023-04-15T23:33:04.704Z,85.20
2023-04-15T23:38:09.887Z,85.71
2023-04-15T23:43:13.325Z,85.77
2023-04-15T23:48:16.986Z,86.03
2023-04-15T23:53:21.865Z,86.83
2023-04-15T23:58:25.499Z,87.21
